ES-0122 weather

Huevar 2
Huevar, AndalucĂ­a, Spain

Public forecast

Using degrees Celsius for public forecast. Weather courtesy of forecast.io.

METAR (pilot weather report)

Closest report is Sevilla Airport, 17.1 nm (31.7 km) E. Retrieved 2018/12/18 15:30 UTC (0 seconds ago):

LEZL 181530Z 33005KT 9999 FEW030 16/10 Q1023 NOSIG

TAF (pilot weather forecast)

Closest forecast is Sevilla Airport, 17.1 nm (31.7 km) E. Retrieved 2018/12/18 15:27 UTC (0 seconds ago):

TAF LEZL 181400Z 1815/1915 24005KT CAVOK TX17/1816Z TN10/1822Z PROB40 TEMPO 1822/1910 4000 RA BR BKN010